METAR AND TAF INFORMATION
METAR FOR KVNY
KVNY 130751Z AUTO 15006KT 10SM OVC030 13/07 A3001 RMK AO2 SLP157 T01330072 401610117
KVNY 130724Z AUTO 16008KT 10SM FEW025 BKN032 OVC044 13/08 A3001 RMK AO2 T01330078
KVNY 130651Z AUTO 16008KT 10SM OVC029 13/08 A3000 RMK AO2 SLP154 T01330083
KVNY 130638Z AUTO 15008KT 10SM OVC028 13/08 A3000 RMK AO2 T01330083
KVNY 130551Z AUTO 16007KT 10SM OVC030 14/08 A2999 RMK AO2 SLP152 T01390078 10150 20133 51012
KVNY 130536Z 1306/1406 16010KT P6SM OVC025
FM131200 11015KT 6SM -DZ BR OVC015
FM131700 12010KT 6SM -SHRA OVC025
FM132100 19012KT 5SM -RA BR OVC015
FM140100 22008KT P6SM -SHRA OVC025

 AIRPORT MAP

 RUNWAY INFORMATION
Runway 16L Runway length 4011 ft Runway width 75 ft
Runway elevation 791 ft Runway displaced threshold 1431 ft Runway heading 176
Runway 34R Runway length 4011 ft Runway width 75 ft
Runway elevation 772 ft Runway displaced threshold 0 ft Runway heading 356
Runway 16R Runway length 8001 ft Runway width 150 ft
Runway elevation 793 ft Runway displaced threshold 1431 ft Runway heading 176
Runway 34L Runway length 8001 ft Runway width 150 ft
Runway elevation 746 ft Runway displaced threshold 0 ft Runway heading 356

 AIRPORT FREQUENCIES
Type A/D Name SOCAL APP/ Frequency 120.4 MHZ
Type ATIS Name ATIS Frequency 118.45 MHZ
Type CLD Name CLNC DEL Frequency 126.6 MHZ
Type CTAF Name CTAF Frequency 119.3 MHZ
Type GND Name GND Frequency 121.7 MHZ
Type TWR Name TWR Frequency 119.3 MHZ
Type UNIC Name UNICOM Frequency 122.95 MHZ
Type TWR Name TWR Frequency 120.2 MHZ

 AIRPORT NEAR NAVIGATION AIDS

-